createdAt,value
2022-09-15T00:02:49.308Z,18.15
2022-09-15T00:07:57.805Z,18.36
2022-09-15T00:13:06.247Z,18.4
2022-09-15T00:18:14.014Z,18.49
2022-09-15T00:23:22.425Z,18.6
2022-09-15T00:28:30.552Z,18.64
2022-09-15T00:33:38.487Z,18.65
2022-09-15T00:38:46.522Z,18.62
2022-09-15T00:43:53.876Z,18.54
2022-09-15T00:49:00.348Z,18.54
2022-09-15T00:54:06.942Z,18.52
2022-09-15T00:59:14.774Z,18.48
2022-09-15T01:04:22.032Z,18.39
2022-09-15T01:09:30.544Z,18.26
2022-09-15T01:14:38.230Z,18.14
2022-09-15T01:19:45.032Z,18.09
2022-09-15T01:24:52.700Z,18.07
2022-09-15T01:30:01.301Z,18.02
2022-09-15T01:35:10.630Z,18.2
2022-09-15T01:40:18.629Z,18.29
2022-09-15T01:45:26.837Z,18.28
2022-09-15T01:50:34.849Z,18.39
2022-09-15T01:55:42.579Z,18.56
2022-09-15T02:00:50.339Z,18.59
2022-09-15T02:05:58.019Z,18.52
2022-09-15T02:11:05.435Z,18.48
2022-09-15T02:17:43.944Z,18.42
2022-09-15T02:22:50.514Z,18.32
2022-09-15T02:27:57.293Z,18.15
2022-09-15T02:33:04.289Z,18.04
2022-09-15T02:38:11.861Z,18.01
2022-09-15T02:43:19.439Z,18.01
2022-09-15T02:48:26.490Z,17.9
2022-09-15T02:53:34.528Z,18.07
2022-09-15T02:58:42.345Z,18.28
2022-09-15T03:03:49.397Z,18.43
2022-09-15T03:08:57.989Z,18.43
2022-09-15T03:14:05.160Z,18.39
2022-09-15T03:19:12.947Z,18.33
2022-09-15T03:24:20.139Z,18.32
2022-09-15T03:29:27.989Z,18.32
2022-09-15T03:34:35.943Z,18.29
2022-09-15T03:39:43.834Z,18.25
2022-09-15T03:44:52.416Z,18.33
2022-09-15T03:49:59.941Z,18.44
2022-09-15T03:55:07.339Z,18.44
2022-09-15T04:00:13.763Z,18.49
2022-09-15T04:05:22.090Z,18.58
2022-09-15T04:10:30.489Z,18.54
2022-09-15T04:15:43.062Z,18.49
2022-09-15T04:20:50.911Z,18.48
2022-09-15T04:25:58.209Z,18.59
2022-09-15T04:31:06.521Z,18.72
2022-09-15T04:36:13.702Z,18.79
2022-09-15T04:41:21.148Z,18.81
2022-09-15T04:46:28.694Z,18.81
2022-09-15T04:51:36.548Z,18.86
2022-09-15T04:56:44.913Z,18.93
2022-09-15T05:01:52.502Z,18.99
2022-09-15T05:07:00.776Z,19.01
2022-09-15T05:12:09.168Z,19.15
2022-09-15T05:17:16.380Z,19.22
2022-09-15T05:22:24.253Z,19.33
2022-09-15T05:27:32.598Z,19.46
2022-09-15T05:32:40.281Z,19.79
2022-09-15T05:37:48.070Z,20.11
2022-09-15T05:42:55.924Z,20.29
2022-09-15T05:48:03.443Z,20.46
2022-09-15T05:53:10.007Z,20.7
2022-09-15T05:58:18.316Z,20.83
2022-09-15T06:03:25.698Z,20.67
2022-09-15T06:08:33.574Z,20.3
2022-09-15T06:13:42.556Z,20.06
2022-09-15T06:18:50.232Z,20.14
2022-09-15T06:23:58.312Z,20.32
2022-09-15T06:29:07.356Z,21.0
2022-09-15T06:34:14.618Z,21.51
2022-09-15T06:39:23.502Z,21.58
2022-09-15T06:44:30.995Z,21.78
2022-09-15T06:49:38.170Z,22.26
2022-09-15T06:54:46.202Z,22.64
2022-09-15T06:59:54.258Z,22.5
2022-09-15T07:05:01.654Z,22.19
2022-09-15T07:10:09.471Z,22.02
2022-09-15T07:15:16.882Z,22.04
2022-09-15T07:20:24.173Z,21.9
2022-09-15T07:25:32.263Z,21.78
2022-09-15T07:30:40.219Z,21.88
2022-09-15T07:35:47.802Z,21.98
2022-09-15T07:40:55.859Z,22.16
2022-09-15T07:46:04.162Z,22.28
2022-09-15T07:51:11.914Z,22.68
2022-09-15T07:56:19.875Z,25.43
2022-09-15T08:01:29.466Z,26.34
2022-09-15T08:06:36.414Z,25.08
2022-09-15T08:11:43.844Z,26.78
2022-09-15T08:16:51.053Z,26.12
2022-09-15T08:21:57.913Z,24.6
2022-09-15T08:27:05.275Z,23.86
2022-09-15T08:32:13.692Z,23.21
2022-09-15T08:37:21.281Z,23.1
2022-09-15T08:42:29.037Z,23.34
2022-09-15T08:47:37.223Z,22.78
2022-09-15T08:52:45.290Z,22.54
2022-09-15T08:57:54.245Z,22.67
2022-09-15T09:03:00.741Z,22.34
2022-09-15T09:08:07.941Z,22.04
2022-09-15T09:13:16.141Z,21.8
2022-09-15T09:18:23.668Z,21.62
2022-09-15T09:23:31.420Z,21.42
2022-09-15T09:28:38.914Z,21.2
2022-09-15T09:33:46.494Z,21.03
2022-09-15T09:38:53.059Z,20.86
2022-09-15T09:44:00.903Z,20.65
2022-09-15T09:49:08.609Z,20.08
2022-09-15T09:54:15.291Z,19.56
2022-09-15T09:59:22.344Z,18.96
2022-09-15T10:04:31.567Z,18.46
2022-09-15T10:09:40.330Z,18.28
2022-09-15T10:14:47.346Z,18.42
2022-09-15T10:19:55.233Z,18.54
2022-09-15T10:25:02.612Z,18.59
2022-09-15T10:30:09.734Z,18.48
2022-09-15T10:35:17.385Z,18.32
2022-09-15T10:40:26.331Z,18.11
2022-09-15T10:45:33.461Z,18.04
2022-09-15T10:50:41.438Z,18.32
2022-09-15T10:55:49.980Z,18.78
2022-09-15T11:00:58.800Z,19.12
2022-09-15T11:06:05.734Z,19.28
2022-09-15T11:11:12.624Z,19.35
2022-09-15T11:16:21.262Z,19.44
2022-09-15T11:21:27.938Z,19.58
2022-09-15T11:26:36.737Z,19.73
2022-09-15T11:31:44.561Z,19.86
2022-09-15T11:36:51.526Z,20.04
2022-09-15T11:41:59.774Z,20.16
2022-09-15T11:47:07.187Z,20.28
2022-09-15T11:52:15.242Z,20.33
2022-09-15T11:57:21.610Z,20.38
2022-09-15T12:02:30.054Z,20.42
2022-09-15T12:07:37.495Z,20.48
2022-09-15T12:12:45.658Z,20.6
2022-09-15T12:17:53.968Z,20.67
2022-09-15T12:23:00.739Z,20.86
2022-09-15T12:28:09.210Z,21.18
2022-09-15T12:33:17.011Z,21.43
2022-09-15T12:38:25.416Z,21.52
2022-09-15T12:43:33.380Z,21.6
2022-09-15T12:48:41.002Z,21.65
2022-09-15T12:53:47.779Z,21.72
2022-09-15T12:58:55.201Z,21.89
2022-09-15T13:04:02.821Z,21.96
2022-09-15T13:09:10.660Z,22.06
2022-09-15T13:14:18.417Z,22.28
2022-09-15T13:19:26.331Z,22.49
2022-09-15T13:24:34.547Z,22.8
2022-09-15T13:29:41.426Z,23.04
2022-09-15T13:34:48.652Z,23.15
2022-09-15T13:39:56.188Z,23.1
2022-09-15T13:45:04.122Z,23.3
2022-09-15T13:50:11.482Z,23.75
2022-09-15T13:55:19.011Z,24.17
2022-09-15T14:00:26.493Z,23.94
2022-09-15T14:05:35.493Z,23.44
2022-09-15T14:10:42.301Z,23.1
2022-09-15T14:15:50.212Z,23.1
2022-09-15T14:20:57.862Z,23.03
2022-09-15T14:26:05.457Z,22.48
2022-09-15T14:31:12.475Z,21.31
2022-09-15T14:36:18.793Z,20.44
2022-09-15T14:41:26.644Z,19.72
2022-09-15T14:46:33.841Z,19.04
2022-09-15T14:51:41.024Z,18.98
2022-09-15T14:56:50.283Z,19.28
2022-09-15T15:01:58.028Z,19.28
2022-09-15T15:07:05.866Z,19.32
2022-09-15T15:12:14.938Z,19.9
2022-09-15T15:17:22.489Z,20.38
2022-09-15T15:22:32.447Z,20.6
2022-09-15T15:27:41.061Z,20.4
2022-09-15T15:32:48.776Z,20.12
2022-09-15T15:37:56.110Z,19.98
2022-09-15T15:43:03.987Z,20.3
2022-09-15T15:48:11.885Z,20.47
2022-09-15T15:53:20.190Z,20.3
2022-09-15T15:58:27.523Z,20.07
2022-09-15T16:03:34.766Z,19.9
2022-09-15T16:08:42.775Z,19.64
2022-09-15T16:13:50.342Z,19.44
2022-09-15T16:18:58.691Z,19.3
2022-09-15T16:24:06.571Z,19.02
2022-09-15T16:29:14.302Z,18.81
2022-09-15T16:34:21.890Z,18.65
2022-09-15T16:39:30.712Z,18.49
2022-09-15T16:44:38.025Z,18.36
2022-09-15T16:49:45.790Z,18.22
2022-09-15T16:54:53.095Z,18.1
2022-09-15T17:00:01.410Z,17.98
2022-09-15T17:05:08.748Z,17.85
2022-09-15T17:10:16.729Z,17.7
2022-09-15T17:15:23.119Z,17.62
2022-09-15T17:20:31.026Z,17.43
2022-09-15T17:25:38.226Z,17.28
2022-09-15T17:30:45.440Z,17.15
2022-09-15T17:35:53.264Z,17.04
2022-09-15T17:41:00.308Z,17.01
2022-09-15T17:46:07.892Z,17.02
2022-09-15T17:51:14.871Z,16.96
2022-09-15T17:56:23.174Z,16.92
2022-09-15T18:01:29.890Z,16.82
2022-09-15T18:06:37.701Z,16.78
2022-09-15T18:11:50.663Z,16.72
2022-09-15T18:16:57.223Z,16.8
2022-09-15T18:22:05.088Z,16.85
2022-09-15T18:27:12.206Z,16.86
2022-09-15T18:32:19.392Z,16.83
2022-09-15T18:37:27.746Z,16.78
2022-09-15T18:42:35.148Z,16.68
2022-09-15T18:47:43.339Z,16.62
2022-09-15T18:52:57.041Z,16.53
2022-09-15T18:58:03.828Z,16.52
2022-09-15T19:03:10.940Z,16.54
2022-09-15T19:08:18.864Z,16.54
2022-09-15T19:13:26.655Z,16.5
2022-09-15T19:18:34.034Z,16.54
2022-09-15T19:23:41.699Z,16.65
2022-09-15T19:28:49.902Z,16.78
2022-09-15T19:33:56.054Z,16.88
2022-09-15T19:39:03.938Z,16.91
2022-09-15T19:44:11.711Z,17.02
2022-09-15T19:49:20.247Z,17.14
2022-09-15T19:54:42.760Z,16.91
2022-09-15T19:59:50.332Z,16.33
2022-09-15T20:04:58.972Z,15.94
2022-09-15T20:10:07.609Z,15.78
2022-09-15T20:15:15.029Z,15.67
2022-09-15T20:20:22.000Z,15.52
2022-09-15T20:25:30.309Z,15.3
2022-09-15T20:30:38.247Z,15.14
2022-09-15T20:35:44.882Z,14.99
2022-09-15T20:40:52.936Z,14.85
2022-09-15T20:45:59.924Z,14.76
2022-09-15T20:51:07.457Z,14.66
2022-09-15T20:56:15.546Z,14.57
2022-09-15T21:01:22.792Z,14.4
2022-09-15T21:06:31.013Z,14.24
2022-09-15T21:11:42.730Z,14.03
2022-09-15T21:16:50.760Z,13.97
2022-09-15T21:21:57.377Z,13.75
2022-09-15T21:27:04.599Z,13.54
2022-09-15T21:32:12.424Z,13.34
2022-09-15T21:37:19.942Z,13.22
2022-09-15T21:42:42.493Z,13.28
2022-09-15T21:43:09.985Z,13.28
2022-09-15T21:48:11.993Z,13.14
2022-09-15T21:48:31.141Z,13.14
2022-09-15T21:53:30.746Z,13.03
2022-09-15T21:58:38.980Z,13.04
2022-09-15T22:03:46.610Z,13.06
2022-09-15T22:08:53.891Z,13.02
2022-09-15T22:14:01.212Z,13.03
2022-09-15T22:19:10.242Z,12.97
2022-09-15T22:24:17.504Z,12.8
2022-09-15T22:29:24.713Z,12.63
2022-09-15T22:34:33.752Z,12.57
2022-09-15T22:39:42.292Z,12.62
2022-09-15T22:44:51.331Z,12.52
2022-09-15T22:49:57.996Z,12.38
2022-09-15T22:55:06.087Z,12.34
2022-09-15T23:00:13.692Z,12.29
2022-09-15T23:05:21.951Z,12.44
2022-09-15T23:10:28.763Z,12.42
2022-09-15T23:15:36.589Z,12.36
2022-09-15T23:20:44.756Z,12.26
2022-09-15T23:25:54.050Z,12.15
2022-09-15T23:31:00.693Z,12.09
2022-09-15T23:36:07.932Z,11.98
2022-09-15T23:41:15.164Z,11.9
2022-09-15T23:46:23.719Z,11.88
2022-09-15T23:51:31.744Z,11.9
2022-09-15T23:56:40.018Z,11.94
